»·PEaware :: SKW5081 KDEN-KRKS

SKW5081 :: KDEN-KRKS

FLIGHT INFORMATION

Flight Status: Arrived
Operator:
SkyWest Airlines
More flights by this operator :: More flights under this callsign
Pilot: Matthew M. (8235)
Aircraft: CANADAIR CL-600 CRJ-200
(CRJ2)
More flights by this aircraft type
Origin: KDEN Denver Intl
United States
Destination: KRKS Rock Springs-Sweetwater
United States
More flights between these airports :: More routes between these airports
Route: ZIMMR1 CHNGY DIGNE
File this flight plan on PilotEdge
Remarks:
Altitude:
(Current/Filed)
34,000ft
Speed:
(Current/Filed)
402kts
Departed: 12-May-20 12:24 PM
Arrived: 12-May-20 01:06 PM
Distance/Time
Traveled:
226nm/0:41
Distance/Time
To Go:
Arrived

Flight Plot

Page will automatically refresh every two minutes.

Flight plan parsing failed; only flown route is shown


Map Options




Map Legend


Flown Route
Filed Route
Departure Airport
Arrival Airport
Navaid (VOR, NDB)
Fix

Horizontal Profiles

Position Reports

Time Latitude Longitude Heading Altitude Ground
Speed
12-May-20 12:13 39.859408 -104.668348 180 5439ft 0kts
12-May-20 12:14 39.859408 -104.668347 180 5439ft 0kts
12-May-20 12:15 39.859408 -104.668348 180 5439ft 0kts
12-May-20 12:16 39.859560 -104.668340 186 5439ft 6kts
12-May-20 12:17 39.859993 -104.672022 270 5439ft 19kts
12-May-20 12:18 39.860051 -104.679119 270 5439ft 19kts
12-May-20 12:19 39.861423 -104.683925 1 5439ft 18kts
12-May-20 12:20 39.864277 -104.685766 269 5439ft 0kts
12-May-20 12:21 39.864277 -104.685766 269 5439ft 0kts
12-May-20 12:22 39.864295 -104.687027 302 5439ft 0kts
12-May-20 12:23 39.878312 -104.687021 0 5439ft 139kts
12-May-20 12:24 39.924020 -104.708964 291 6852ft 239kts
12-May-20 12:25 39.925896 -104.805131 276 8631ft 285kts
12-May-20 12:26 39.932004 -104.906278 273 9639ft 280kts
12-May-20 12:27 39.934935 -105.019803 270 12396ft 332kts
12-May-20 12:28 39.937537 -105.139330 270 16014ft 342kts
12-May-20 12:29 39.942861 -105.265828 274 19250ft 356kts
12-May-20 12:30 39.953070 -105.397129 274 22167ft 370kts
12-May-20 12:31 39.963658 -105.532630 274 24767ft 382kts
12-May-20 12:32 39.973944 -105.672878 272 27185ft 393kts
12-May-20 12:33 39.981324 -105.816134 272 29405ft 404kts
12-May-20 12:34 39.988627 -105.964055 271 31419ft 414kts
12-May-20 12:35 39.995947 -106.115946 271 33000ft 422kts
12-May-20 12:36 40.003169 -106.270641 271 34031ft 430kts
12-May-20 12:37 40.010968 -106.429292 277 34033ft 441kts
12-May-20 12:38 40.078905 -106.564993 306 33983ft 452kts
12-May-20 12:39 40.158939 -106.682491 306 33945ft 416kts
12-May-20 12:40 40.234079 -106.793017 305 33941ft 397kts
12-May-20 12:41 40.305979 -106.899160 305 33946ft 381kts
12-May-20 12:42 40.374931 -107.001363 305 33951ft 377kts
12-May-20 12:43 40.449311 -107.111992 305 33955ft 427kts
12-May-20 12:44 40.530755 -107.233485 306 33952ft 454kts
12-May-20 12:45 40.613227 -107.357012 306 33942ft 448kts
12-May-20 12:46 40.695769 -107.481195 306 33929ft 446kts
12-May-20 12:47 40.777415 -107.604505 306 32943ft 437kts
12-May-20 12:48 40.854931 -107.722075 305 31148ft 422kts
12-May-20 12:49 40.931311 -107.838357 304 29362ft 415kts
12-May-20 12:50 41.006512 -107.953325 305 27575ft 409kts
12-May-20 12:51 41.080214 -108.066406 305 25796ft 405kts
12-May-20 12:52 41.151055 -108.175435 305 24033ft 389kts
12-May-20 12:53 41.216903 -108.277076 305 23915ft 333kts
12-May-20 12:54 41.276519 -108.369592 305 21789ft 328kts
12-May-20 12:55 41.335242 -108.460886 305 19673ft 318kts
12-May-20 12:56 41.390333 -108.546719 305 17633ft 281kts
12-May-20 12:57 41.439451 -108.623548 305 15165ft 256kts
12-May-20 12:58 41.483499 -108.692630 304 12850ft 240kts
12-May-20 12:59 41.526062 -108.759696 304 10936ft 231kts
12-May-20 13:00 41.553061 -108.831435 283 9534ft 195kts
12-May-20 13:01 41.564366 -108.894428 280 9033ft 166kts
12-May-20 13:02 41.575206 -108.955253 282 8157ft 169kts
12-May-20 13:03 41.585921 -109.016426 282 7261ft 168kts
12-May-20 13:04 41.595766 -109.071349 282 6741ft 62kts
12-May-20 13:05 41.597070 -109.072486 13 6741ft 7kts

Navigation Log

Ident Type
Flight plan parsing failed, navigation log unavailable